Flight Track Log - Related Links

Times and Time Zones

All times are in EDT time to prevent confusion due to time zone crossing. See the UPS1216 flight status page for this flight to view local times or setup timezone preferences in your user account.

Time Position Orientation Groundspeed Altitude Reporting Facility
EDT Latitude Longitude Course Direction KTS MPH feet Rate Location/Type
Tue 04:02:32 AM 42.1860 -89.0910 181° South 145 167 1,600  Level FlightAware ADS-B
Tue 04:02:57 AM 42.1710 -89.0740 140° Southeast 187 215 2,700 2,100 Climbing FlightAware ADS-B
Tue 04:03:12 AM 42.1690 -89.0540 98° East 227 261 3,000 1,867 Climbing FlightAware ADS-B
Tue 04:03:42 AM 42.1720 -89.0100 85° East 257 296 4,100 2,182 Climbing FlightAware ADS-B
Tue 04:04:07 AM 42.1740 -88.9700 86° East 281 323 5,000 2,100 Climbing FlightAware ADS-B
Tue 04:04:22 AM 42.1760 -88.9410 85° East 304 350 5,500 2,800 Climbing FlightAware ADS-B
Tue 04:04:52 AM 42.1790 -88.8820 86° East 314 361 7,100 3,300 Climbing FlightAware ADS-B
Tue 04:05:02 AM 42.1800 -88.8630 86° East 315 362 7,700 3,450 Climbing FlightAware ADS-B
Tue 04:05:32 AM 42.1830 -88.8030 86° East 322 371 9,400 3,000 Climbing FlightAware ADS-B
Tue 04:06:12 AM 42.1860 -88.7210 87° East 345 397 11,200 2,259 Climbing FlightAware ADS-B
Tue 04:06:57 AM 42.1910 -88.6140 86° East 390 449 12,600 2,259 Climbing FlightAware ADS-B
Tue 04:07:37 AM 42.1960 -88.5160 86° East 401 461 14,400 2,824 Climbing FlightAware ADS-B
Tue 04:08:22 AM 42.2020 -88.4020 86° East 411 473 16,600 2,753 Climbing FlightAware ADS-B
Tue 04:09:02 AM 42.2060 -88.2990 87° East 420 483 18,300 2,471 Climbing FlightAware ADS-B
Tue 04:09:47 AM 42.2120 -88.1810 86° East 429 494 20,100 2,188 Climbing FlightAware ADS-B
Tue 04:10:27 AM 42.2170 -88.0700 86° East 443 510 21,400 1,906 Climbing FlightAware ADS-B
Tue 04:11:12 AM 42.2150 -87.9500 91° East 450 518 22,800 1,835 Climbing FlightAware ADS-B
Tue 04:11:52 AM 42.1850 -87.8450 111° Southeast 457 526 24,000 1,835 Climbing FlightAware ADS-B
Tue 04:12:37 AM 42.1430 -87.7260 115° Southeast 465 535 25,400 1,835 Climbing FlightAware ADS-B
Tue 04:13:17 AM 42.1050 -87.6190 116° Southeast 472 543 26,600 1,650 Climbing FlightAware ADS-B
Tue 04:13:57 AM 42.0680 -87.5150 116° Southeast 478 550 27,600 1,694 Climbing FlightAware ADS-B
Tue 04:14:42 AM 42.0240 -87.3900 115° Southeast 482 555 29,000 1,976 Climbing FlightAware ADS-B
Tue 04:15:22 AM 41.9870 -87.2870 116° Southeast 474 545 30,400 2,100 Climbing FlightAware ADS-B
Tue 04:16:02 AM 41.9480 -87.1790 116° Southeast 469 540 31,800 1,976 Climbing FlightAware ADS-B
Tue 04:16:47 AM 41.9060 -87.0610 116° Southeast 464 534 33,200 1,553 Climbing FlightAware ADS-B
Tue 04:17:27 AM 41.8680 -86.9560 116° Southeast 463 533 34,000 565 Climbing FlightAware ADS-B
Tue 04:18:12 AM 41.8250 -86.8390 116° Southeast 467 537 34,000 635 Level FlightAware ADS-B
Tue 04:18:52 AM 41.7870 -86.7340 116° Southeast 463 533 34,900 706 Climbing FlightAware ADS-B
Tue 04:19:37 AM 41.7450 -86.6190 116° Southeast 458 527 35,000 71 Climbing FlightAware ADS-B
Tue 04:20:17 AM 41.7080 -86.5200 117° Southeast 461 531 35,000  Level FlightAware ADS-B
Tue 04:20:52 AM 41.6750 -86.4300 116° Southeast 464 534 35,000  Level FlightAware ADS-B
Tue 04:21:42 AM 41.6250 -86.2950 116° Southeast 464 534 35,000  Level FlightAware ADS-B
Tue 04:22:22 AM 41.5870 -86.1930 116° Southeast 465 535 35,000  Level FlightAware ADS-B
Tue 04:23:07 AM 41.5480 -86.0820 115° Southeast 466 536 35,000  Level FlightAware ADS-B
Tue 04:23:47 AM 41.5160 -85.9680 111° Southeast 468 539 35,000  Level FlightAware ADS-B
Tue 04:24:05 AM 41.5086 -85.9456 111° Southeast 468 539 35,000  Level Chicago Center
Tue 04:25:05 AM 41.4658 -85.7822 109° East 470 541 35,000  Level Chicago Center
Tue 04:26:06 AM 41.4231 -85.6186 109° East 473 544 35,000  Level Chicago Center
Tue 04:27:06 AM 41.3711 -85.4242 110° East 473 544 35,000  Level Chicago Center
Tue 04:28:06 AM 41.3281 -85.2628 110° East 471 542 35,000  Level Chicago Center
Tue 04:29:07 AM 41.2850 -85.1025 110° East 467 537 35,000  Level Chicago Center
Tue 04:30:07 AM 41.2417 -84.9417 110° East 466 536 35,000  Level Chicago Center
Tue 04:31:07 AM 41.1997 -84.7811 109° East 464 534 35,000  Level Chicago Center
Tue 04:32:08 AM 41.1583 -84.6200 109° East 463 533 35,000  Level Chicago Center
Tue 04:33:08 AM 41.1164 -84.4569 109° East 468 539 35,000  Level Chicago Center
Tue 04:34:08 AM 41.0742 -84.2947 109° East 468 539 35,000  Level Chicago Center
Tue 04:35:09 AM 41.0303 -84.1322 110° East 470 541 35,000  Level Chicago Center
Tue 04:35:44 AM 41.0025 -84.0267 109° East 471 542 35,000  Level Indianapolis Center
Tue 04:36:45 AM 40.9586 -83.8603 109° East 474 545 35,000  Level Indianapolis Center
Tue 04:37:45 AM 40.9144 -83.6947 109° East 471 542 35,000  Level Indianapolis Center
Tue 04:38:46 AM 40.8694 -83.5289 110° East 472 543 35,000  Level Indianapolis Center
Tue 04:39:46 AM 40.8314 -83.3853 109° East 475 547 35,000  Level Indianapolis Center
Tue 04:40:47 AM 40.7797 -83.1956 110° East 476 548 35,000  Level Indianapolis Center
Tue 04:41:47 AM 40.7406 -83.0547 110° East 477 549 35,000  Level Indianapolis Center
Tue 04:42:48 AM 40.6947 -82.8881 110° East 479 551 35,000  Level Indianapolis Center
Tue 04:43:48 AM 40.6486 -82.7225 110° East 480 552 35,000  Level Indianapolis Center
Tue 04:44:50 AM 40.6017 -82.5569 110° East 480 552 35,000  Level Indianapolis Center
Tue 04:45:49 AM 40.5556 -82.3900 110° East 483 556 35,000  Level Indianapolis Center
Tue 04:46:50 AM 40.5089 -82.2244 110° East 484 557 35,000  Level Indianapolis Center
Tue 04:47:45 AM 40.4622 -82.0458 109° East 478 550 35,000  Level Cleveland Center
Tue 04:48:45 AM 40.4225 -81.8758 107° East 485 558 35,000  Level Cleveland Center
Tue 04:49:45 AM 40.3825 -81.7089 107° East 485 558 35,000  Level Cleveland Center
Tue 04:50:45 AM 40.3444 -81.5392 106° East 485 558 35,000  Level Cleveland Center
Tue 04:51:45 AM 40.3042 -81.3697 107° East 485 558 35,000  Level Cleveland Center
Tue 04:52:45 AM 40.2656 -81.2061 107° East 480 552 35,000  Level Cleveland Center
Tue 04:53:45 AM 40.2247 -81.0400 108° East 480 552 35,000  Level Cleveland Center
Tue 04:54:45 AM 40.1856 -80.8711 107° East 480 552 35,000  Level Cleveland Center
Tue 04:55:45 AM 40.1442 -80.7053 108° East 480 552 35,000  Level Cleveland Center
Tue 04:57:56 AM 40.0525 -80.3578 109° East 477 549 35,000  Level Indianapolis Center
Tue 04:58:57 AM 40.0111 -80.1925 108° East 478 550 35,000  Level Indianapolis Center
Tue 04:59:51 AM 39.9808 -80.0619 107° East 482 555 35,000  Level Washington Center
Tue 05:00:48 AM 39.9389 -79.8997 109° East 477 549 35,000  Level Washington Center
Tue 05:01:49 AM 39.8986 -79.7375 108° East 472 543 35,000  Level Washington Center
Tue 05:02:49 AM 39.8542 -79.5728 109° East 472 543 35,000 -1,033 Level Washington Center
Tue 05:03:51 AM 39.8117 -79.4111 109° East 472 543 32,900 -2,132 Descending Washington Center
Tue 05:04:50 AM 39.7706 -79.2522 109° East 472 543 30,700 -2,136 Descending Washington Center
Tue 05:05:49 AM 39.7294 -79.0936 109° East 472 543 28,700 -2,034 Descending Washington Center
Tue 05:06:48 AM 39.6900 -78.9433 109° East 456 525 26,700 -1,983 Descending Washington Center
Tue 05:07:50 AM 39.6483 -78.7933 110° East 451 519 24,700 -2,016 Descending Washington Center
Tue 05:08:50 AM 39.6103 -78.6542 110° East 427 491 22,600 -2,050 Descending Washington Center
Tue 05:09:50 AM 39.5719 -78.5181 110° East 413 475 20,600 -2,000 Descending Washington Center
Tue 05:10:50 AM 39.5333 -78.3844 111° Southeast 408 470 18,600 -2,017 Descending Washington Center
Tue 05:11:49 AM 39.4989 -78.2542 109° East 390 449 16,600 -1,831 Descending Washington Center
Tue 05:12:48 AM 39.4622 -78.1156 109° East 385 443 15,000 -1,100 Descending Washington Center
Tue 05:13:49 AM 39.4292 -77.9936 109° East 370 426 14,400 -1,250 Descending Washington Center
Tue 05:14:48 AM 39.4025 -77.8719 106° East 360 414 12,500 -1,650 Descending Washington Center
Tue 05:15:49 AM 39.3775 -77.7583 106° East 345 397 11,100 -1,140 Descending Washington Center
Tue 05:16:49 AM 39.3544 -77.6528 106° East 324 373 10,200 -1,178 Descending Washington Center
Tue 05:17:36 AM 39.3333 -77.5667 108° East 292 336 9,000 -1,402 Descending Potomac TRACON
Tue 05:18:36 AM 39.3167 -77.4667 102° East 284 327 7,700 -1,250 Descending Potomac TRACON
Tue 05:19:36 AM 39.3000 -77.3833 104° East 275 316 6,500 -1,250 Descending Potomac TRACON
Tue 05:20:36 AM 39.2667 -77.2833 113° Southeast 262 302 5,200 -842 Descending Potomac TRACON
Tue 05:21:30 AM 39.2500 -77.2167 108° East 220 253 4,900 -842 Descending Potomac TRACON
Tue 05:22:30 AM 39.2333 -77.1500 108° East 203 234 3,600 -1,150 Descending Potomac TRACON
Tue 05:23:30 AM 39.2333 -77.0833 90° East 196 226 2,600 -550 Descending Potomac TRACON
Tue 05:24:30 AM 39.2167 -77.0000 104° East 198 228 2,500 -50 Descending Potomac TRACON
Tue 05:25:30 AM 39.2000 -76.9500 113° Southeast 174 200 2,500  Level Potomac TRACON
Tue 05:26:24 AM 39.1833 -76.9000 113° Southeast 164 189 2,500  Level Potomac TRACON
Tue 05:27:24 AM 39.1833 -76.8333 90° East 147 169 2,500 -400 Level Potomac TRACON
Tue 05:28:24 AM 39.1833 -76.7833 90° East 143 165 1,700 -700 Descending Potomac TRACON
Tue 05:29:24 AM 39.1833 -76.7500 90° East 108 124 1,100 -600 Descending Potomac TRACON
Tue 05:30:24 AM 39.1833 -76.7000 90° East 112 129 500 -600 Descending Potomac TRACON
Tue 05:32:00 AM 39.1667 -76.6667 142° Southeast  Level FlightAware Approximate
Tue 05:39:00 AM 39.1754 -76.6683 142° Southeast  Level Estimated
Tue 05:40:00 AM 39.1754 -76.6683 142° Southeast  Level Estimated
Tue 05:41:00 AM 39.1754 -76.6683 142° Southeast  Level Estimated
Tue 05:42:00 AM 39.1754 -76.6683 142° Southeast  Level Estimated

Login

Don't have an account? Register now (free) for customized features, flight alerts, and more!